sensor_id;sensor_type;location;lat;lon;timestamp;temperature;humidity
21417;DHT22;10869;52.238;10.716;2022-11-13T04:02:18;3.50;99.90
21417;DHT22;10869;52.238;10.716;2022-11-13T04:04:44;3.50;99.90
21417;DHT22;10869;52.238;10.716;2022-11-13T04:07:10;3.40;99.90
21417;DHT22;10869;52.238;10.716;2022-11-13T04:09:35;3.40;99.90
21417;DHT22;10869;52.238;10.716;2022-11-13T04:12:01;3.40;99.90
21417;DHT22;10869;52.238;10.716;2022-11-13T04:14:27;3.40;99.90
21417;DHT22;10869;52.238;10.716;2022-11-13T04:16:52;3.30;99.90
21417;DHT22;10869;52.238;10.716;2022-11-13T04:19:18;3.30;99.90
21417;DHT22;10869;52.238;10.716;2022-11-13T04:21:44;3.30;99.90
21417;DHT22;10869;52.238;10.716;2022-11-13T04:24:09;3.20;99.90
21417;DHT22;10869;52.238;10.716;2022-11-13T04:26:35;3.20;99.90
21417;DHT22;10869;52.238;10.716;2022-11-13T04:29:01;3.20;99.90
21417;DHT22;10869;52.238;10.716;2022-11-13T04:31:26;3.20;99.90
21417;DHT22;10869;52.238;10.716;2022-11-13T04:33:52;3.10;99.90
21417;DHT22;10869;52.238;10.716;2022-11-13T04:36:18;3.10;99.90
21417;DHT22;10869;52.238;10.716;2022-11-13T04:38:43;3.10;99.90
21417;DHT22;10869;52.238;10.716;2022-11-13T04:41:12;3.10;99.90
21417;DHT22;10869;52.238;10.716;2022-11-13T04:43:56;3.00;99.90
21417;DHT22;10869;52.238;10.716;2022-11-13T04:46:21;3.10;99.90
21417;DHT22;10869;52.238;10.716;2022-11-13T04:48:47;3.00;99.90
21417;DHT22;10869;52.238;10.716;2022-11-13T04:51:13;3.00;99.90
21417;DHT22;10869;52.238;10.716;2022-11-13T04:53:39;3.00;99.90
21417;DHT22;10869;52.238;10.716;2022-11-13T04:56:04;2.90;99.90
21417;DHT22;10869;52.238;10.716;2022-11-13T04:58:30;3.00;99.90
21417;DHT22;10869;52.238;10.716;2022-11-13T05:00:56;3.00;99.90
21417;DHT22;10869;52.238;10.716;2022-11-13T05:03:22;3.00;99.90
21417;DHT22;10869;52.238;10.716;2022-11-13T05:05:47;2.90;99.90
21417;DHT22;10869;52.238;10.716;2022-11-13T05:08:13;2.90;99.90
21417;DHT22;10869;52.238;10.716;2022-11-13T05:10:39;2.80;99.90
21417;DHT22;10869;52.238;10.716;2022-11-13T05:13:04;2.80;99.90
21417;DHT22;10869;52.238;10.716;2022-11-13T05:15:30;2.70;99.90
21417;DHT22;10869;52.238;10.716;2022-11-13T05:17:56;2.70;99.90
21417;DHT22;10869;52.238;10.716;2022-11-13T05:20:21;2.70;99.90
21417;DHT22;10869;52.238;10.716;2022-11-13T05:22:47;2.70;99.90
21417;DHT22;10869;52.238;10.716;2022-11-13T05:25:13;2.70;99.90
21417;DHT22;10869;52.238;10.716;2022-11-13T05:27:39;2.60;99.90
21417;DHT22;10869;52.238;10.716;2022-11-13T05:30:05;2.60;99.90
21417;DHT22;10869;52.238;10.716;2022-11-13T05:32:31;2.70;99.90
21417;DHT22;10869;52.238;10.716;2022-11-13T05:34:57;2.60;99.90
21417;DHT22;10869;52.238;10.716;2022-11-13T05:37:22;2.60;99.90
21417;DHT22;10869;52.238;10.716;2022-11-13T05:39:48;2.60;99.90
21417;DHT22;10869;52.238;10.716;2022-11-13T05:42:14;2.60;99.90
21417;DHT22;10869;52.238;10.716;2022-11-13T05:44:40;2.60;99.90
21417;DHT22;10869;52.238;10.716;2022-11-13T05:47:05;2.50;99.90
21417;DHT22;10869;52.238;10.716;2022-11-13T05:49:31;2.60;99.90
21417;DHT22;10869;52.238;10.716;2022-11-13T05:51:57;2.60;99.90
21417;DHT22;10869;52.238;10.716;2022-11-13T05:54:23;2.50;99.90
21417;DHT22;10869;52.238;10.716;2022-11-13T05:56:48;2.60;99.90
21417;DHT22;10869;52.238;10.716;2022-11-13T05:59:14;2.60;99.90
21417;DHT22;10869;52.238;10.716;2022-11-13T06:01:40;2.60;99.90
21417;DHT22;10869;52.238;10.716;2022-11-13T06:04:07;2.60;99.90
21417;DHT22;10869;52.238;10.716;2022-11-13T06:06:33;2.60;99.90
21417;DHT22;10869;52.238;10.716;2022-11-13T06:09:02;2.60;99.90
21417;DHT22;10869;52.238;10.716;2022-11-13T06:11:29;2.60;99.90
21417;DHT22;10869;52.238;10.716;2022-11-13T06:13:56;2.60;99.90
21417;DHT22;10869;52.238;10.716;2022-11-13T06:16:27;2.60;99.90
21417;DHT22;10869;52.238;10.716;2022-11-13T06:18:55;2.60;99.90
21417;DHT22;10869;52.238;10.716;2022-11-13T06:21:23;2.60;99.90
21417;DHT22;10869;52.238;10.716;2022-11-13T06:23:52;2.60;99.90
21417;DHT22;10869;52.238;10.716;2022-11-13T06:26:21;2.60;99.90
21417;DHT22;10869;52.238;10.716;2022-11-13T06:28:47;2.60;99.90
21417;DHT22;10869;52.238;10.716;2022-11-13T06:31:21;2.60;99.90
21417;DHT22;10869;52.238;10.716;2022-11-13T06:33:48;2.60;99.90
21417;DHT22;10869;52.238;10.716;2022-11-13T06:36:16;2.60;99.90
21417;DHT22;10869;52.238;10.716;2022-11-13T06:38:43;2.60;99.90
21417;DHT22;10869;52.238;10.716;2022-11-13T06:41:22;2.60;99.90
21417;DHT22;10869;52.238;10.716;2022-11-13T06:43:48;2.60;99.90
21417;DHT22;10869;52.238;10.716;2022-11-13T06:46:17;2.50;99.90
21417;DHT22;10869;52.238;10.716;2022-11-13T06:48:51;2.50;99.90
21417;DHT22;10869;52.238;10.716;2022-11-13T06:54:21;2.50;99.90
21417;DHT22;10869;52.238;10.716;2022-11-13T06:56:47;2.40;99.90
21417;DHT22;10869;52.238;10.716;2022-11-13T06:59:12;2.50;99.90
21417;DHT22;10869;52.238;10.716;2022-11-13T07:01:38;2.50;99.90
21417;DHT22;10869;52.238;10.716;2022-11-13T07:04:05;2.60;99.90
21417;DHT22;10869;52.238;10.716;2022-11-13T07:09:40;2.60;99.90
21417;DHT22;10869;52.238;10.716;2022-11-13T07:12:06;2.70;99.90
21417;DHT22;10869;52.238;10.716;2022-11-13T07:17:53;2.80;99.90
21417;DHT22;10869;52.238;10.716;2022-11-13T07:20:19;2.80;99.90
21417;DHT22;10869;52.238;10.716;2022-11-13T07:22:45;2.80;99.90
21417;DHT22;10869;52.238;10.716;2022-11-13T07:25:10;2.80;99.90
21417;DHT22;10869;52.238;10.716;2022-11-13T07:27:36;2.90;99.90
21417;DHT22;10869;52.238;10.716;2022-11-13T07:33:24;3.00;99.90
21417;DHT22;10869;52.238;10.716;2022-11-13T07:36:17;3.10;99.90
21417;DHT22;10869;52.238;10.716;2022-11-13T07:38:42;3.10;99.90
21417;DHT22;10869;52.238;10.716;2022-11-13T07:41:08;3.20;99.90
21417;DHT22;10869;52.238;10.716;2022-11-13T07:43:34;3.30;99.90
21417;DHT22;10869;52.238;10.716;2022-11-13T07:46:00;3.30;99.90
21417;DHT22;10869;52.238;10.716;2022-11-13T07:48:29;3.40;99.90
21417;DHT22;10869;52.238;10.716;2022-11-13T07:50:59;3.50;99.90
21417;DHT22;10869;52.238;10.716;2022-11-13T07:53:25;3.60;99.90
21417;DHT22;10869;52.238;10.716;2022-11-13T07:55:51;3.70;99.90
21417;DHT22;10869;52.238;10.716;2022-11-13T07:58:17;3.80;99.90
21417;DHT22;10869;52.238;10.716;2022-11-13T08:00:43;3.90;99.90
21417;DHT22;10869;52.238;10.716;2022-11-13T08:03:14;4.00;99.90
21417;DHT22;10869;52.238;10.716;2022-11-13T08:05:41;4.10;99.90
21417;DHT22;10869;52.238;10.716;2022-11-13T08:08:10;4.10;99.90
21417;DHT22;10869;52.238;10.716;2022-11-13T08:10:35;4.20;99.90
21417;DHT22;10869;52.238;10.716;2022-11-13T08:13:07;4.30;99.90
21417;DHT22;10869;52.238;10.716;2022-11-13T08:18:55;4.50;99.90
21417;DHT22;10869;52.238;10.716;2022-11-13T08:21:21;4.60;99.90
21417;DHT22;10869;52.238;10.716;2022-11-13T08:23:47;4.70;99.90
21417;DHT22;10869;52.238;10.716;2022-11-13T08:26:15;4.70;99.90
21417;DHT22;10869;52.238;10.716;2022-11-13T08:28:41;4.90;99.90
21417;DHT22;10869;52.238;10.716;2022-11-13T08:31:10;4.90;99.90
21417;DHT22;10869;52.238;10.716;2022-11-13T08:33:37;5.00;99.90
21417;DHT22;10869;52.238;10.716;2022-11-13T08:36:03;5.20;99.90
21417;DHT22;10869;52.238;10.716;2022-11-13T08:38:28;5.30;99.90
21417;DHT22;10869;52.238;10.716;2022-11-13T08:40:58;5.50;99.90
21417;DHT22;10869;52.238;10.716;2022-11-13T08:50:09;6.00;99.90
21417;DHT22;10869;52.238;10.716;2022-11-13T08:52:34;6.20;99.90
21417;DHT22;10869;52.238;10.716;2022-11-13T08:55:00;6.30;99.90
21417;DHT22;10869;52.238;10.716;2022-11-13T08:57:26;6.50;99.90
21417;DHT22;10869;52.238;10.716;2022-11-13T08:59:54;6.70;99.90
21417;DHT22;10869;52.238;10.716;2022-11-13T09:09:18;7.10;99.90
21417;DHT22;10869;52.238;10.716;2022-11-13T09:15:06;7.30;99.90
21417;DHT22;10869;52.238;10.716;2022-11-13T09:20:59;7.60;99.90
21417;DHT22;10869;52.238;10.716;2022-11-13T09:23:25;7.80;99.90
21417;DHT22;10869;52.238;10.716;2022-11-13T09:25:51;8.00;99.90
21417;DHT22;10869;52.238;10.716;2022-11-13T09:28:16;8.20;99.90
21417;DHT22;10869;52.238;10.716;2022-11-13T09:30:42;8.30;99.90
21417;DHT22;10869;52.238;10.716;2022-11-13T09:33:09;8.50;99.90
21417;DHT22;10869;52.238;10.716;2022-11-13T09:35:39;8.60;99.90
21417;DHT22;10869;52.238;10.716;2022-11-13T09:38:08;8.80;99.90
21417;DHT22;10869;52.238;10.716;2022-11-13T09:43:59;9.10;99.90
21417;DHT22;10869;52.238;10.716;2022-11-13T09:49:17;9.40;99.90
21417;DHT22;10869;52.238;10.716;2022-11-13T09:55:12;9.70;99.90
21417;DHT22;10869;52.238;10.716;2022-11-13T10:01:00;10.00;99.90
21417;DHT22;10869;52.238;10.716;2022-11-13T10:03:39;10.20;99.90
21417;DHT22;10869;52.238;10.716;2022-11-13T10:06:29;10.30;99.90
21417;DHT22;10869;52.238;10.716;2022-11-13T10:12:05;10.60;99.90
21417;DHT22;10869;52.238;10.716;2022-11-13T10:14:39;10.70;99.90
21417;DHT22;10869;52.238;10.716;2022-11-13T10:22:50;11.00;99.90
21417;DHT22;10869;52.238;10.716;2022-11-13T10:25:21;11.10;99.90
21417;DHT22;10869;52.238;10.716;2022-11-13T10:28:01;11.20;99.90
21417;DHT22;10869;52.238;10.716;2022-11-13T10:30:30;11.20;99.90
21417;DHT22;10869;52.238;10.716;2022-11-13T10:33:03;11.30;99.90
21417;DHT22;10869;52.238;10.716;2022-11-13T10:35:48;11.50;99.90
21417;DHT22;10869;52.238;10.716;2022-11-13T10:38:30;11.70;99.90
21417;DHT22;10869;52.238;10.716;2022-11-13T10:41:07;11.80;99.90
21417;DHT22;10869;52.238;10.716;2022-11-13T10:43:36;11.90;99.90
21417;DHT22;10869;52.238;10.716;2022-11-13T10:46:05;11.90;99.90
21417;DHT22;10869;52.238;10.716;2022-11-13T10:48:33;12.00;99.90
21417;DHT22;10869;52.238;10.716;2022-11-13T10:51:05;12.10;99.90
21417;DHT22;10869;52.238;10.716;2022-11-13T10:53:43;12.10;99.90
21417;DHT22;10869;52.238;10.716;2022-11-13T10:56:30;12.20;99.90
21417;DHT22;10869;52.238;10.716;2022-11-13T10:59:19;12.30;99.90
21417;DHT22;10869;52.238;10.716;2022-11-13T11:01:47;12.30;99.90
21417;DHT22;10869;52.238;10.716;2022-11-13T11:04:25;12.30;99.90
21417;DHT22;10869;52.238;10.716;2022-11-13T11:06:54;12.20;99.90
21417;DHT22;10869;52.238;10.716;2022-11-13T11:09:31;12.00;99.90
21417;DHT22;10869;52.238;10.716;2022-11-13T11:26:01;10.30;99.90
21417;DHT22;10869;52.238;10.716;2022-11-13T11:37:22;10.60;99.90
21417;DHT22;10869;52.238;10.716;2022-11-13T11:42:40;10.30;99.90
21417;DHT22;10869;52.238;10.716;2022-11-13T11:47:57;10.10;99.90
21417;DHT22;10869;52.238;10.716;2022-11-13T11:53:24;9.70;99.90
21417;DHT22;10869;52.238;10.716;2022-11-13T11:56:06;9.60;99.90
21417;DHT22;10869;52.238;10.716;2022-11-13T12:04:25;9.20;99.90
21417;DHT22;10869;52.238;10.716;2022-11-13T12:21:23;8.60;99.90
21417;DHT22;10869;52.238;10.716;2022-11-13T12:35:20;7.90;99.90
21417;DHT22;10869;52.238;10.716;2022-11-13T12:38:00;7.70;99.90
21417;DHT22;10869;52.238;10.716;2022-11-13T12:54:01;7.50;99.90
21417;DHT22;10869;52.238;10.716;2022-11-13T13:17:18;7.30;99.90
21417;DHT22;10869;52.238;10.716;2022-11-13T13:20:01;7.30;99.90
21417;DHT22;10869;52.238;10.716;2022-11-13T13:38:29;7.20;99.90
21417;DHT22;10869;52.238;10.716;2022-11-13T13:46:17;7.20;99.90
21417;DHT22;10869;52.238;10.716;2022-11-13T13:48:47;7.10;99.90
21417;DHT22;10869;52.238;10.716;2022-11-13T13:51:41;7.10;99.90
21417;DHT22;10869;52.238;10.716;2022-11-13T13:54:08;6.90;99.90
21417;DHT22;10869;52.238;10.716;2022-11-13T13:56:41;6.90;99.90
21417;DHT22;10869;52.238;10.716;2022-11-13T13:59:18;6.90;99.90
21417;DHT22;10869;52.238;10.716;2022-11-13T14:01:58;7.00;99.90
21417;DHT22;10869;52.238;10.716;2022-11-13T14:04:28;7.00;99.90
21417;DHT22;10869;52.238;10.716;2022-11-13T14:22:24;7.20;99.90
21417;DHT22;10869;52.238;10.716;2022-11-13T14:25:03;7.10;99.90
21417;DHT22;10869;52.238;10.716;2022-11-13T14:33:59;7.10;99.90
21417;DHT22;10869;52.238;10.716;2022-11-13T14:36:30;7.20;99.90
21417;DHT22;10869;52.238;10.716;2022-11-13T14:42:36;7.30;99.90
21417;DHT22;10869;52.238;10.716;2022-11-13T14:45:28;7.20;99.90
21417;DHT22;10869;52.238;10.716;2022-11-13T14:50:55;7.20;99.90
21417;DHT22;10869;52.238;10.716;2022-11-13T14:53:31;7.10;99.90
21417;DHT22;10869;52.238;10.716;2022-11-13T14:59:26;7.10;99.90
21417;DHT22;10869;52.238;10.716;2022-11-13T15:05:15;7.10;99.90
21417;DHT22;10869;52.238;10.716;2022-11-13T15:07:41;7.10;99.90
21417;DHT22;10869;52.238;10.716;2022-11-13T15:10:12;7.10;99.90
21417;DHT22;10869;52.238;10.716;2022-11-13T15:12:39;7.10;99.90
21417;DHT22;10869;52.238;10.716;2022-11-13T15:15:07;7.00;99.90
21417;DHT22;10869;52.238;10.716;2022-11-13T15:17:33;7.10;99.90
21417;DHT22;10869;52.238;10.716;2022-11-13T15:20:03;7.10;99.90
21417;DHT22;10869;52.238;10.716;2022-11-13T15:22:29;7.10;99.90
21417;DHT22;10869;52.238;10.716;2022-11-13T15:24:54;7.10;99.90
21417;DHT22;10869;52.238;10.716;2022-11-13T15:27:20;7.10;99.90
21417;DHT22;10869;52.238;10.716;2022-11-13T15:29:46;7.10;99.90
21417;DHT22;10869;52.238;10.716;2022-11-13T15:32:13;7.10;99.90
21417;DHT22;10869;52.238;10.716;2022-11-13T15:34:42;7.10;99.90
21417;DHT22;10869;52.238;10.716;2022-11-13T15:37:12;7.00;99.90
21417;DHT22;10869;52.238;10.716;2022-11-13T15:39:38;7.00;99.90
21417;DHT22;10869;52.238;10.716;2022-11-13T15:42:28;6.90;99.90
21417;DHT22;10869;52.238;10.716;2022-11-13T15:44:54;6.80;99.90
21417;DHT22;10869;52.238;10.716;2022-11-13T15:47:27;6.90;99.90
21417;DHT22;10869;52.238;10.716;2022-11-13T15:49:53;6.90;99.90
21417;DHT22;10869;52.238;10.716;2022-11-13T15:52:20;6.90;99.90
21417;DHT22;10869;52.238;10.716;2022-11-13T15:54:46;6.90;99.90
21417;DHT22;10869;52.238;10.716;2022-11-13T15:57:23;6.80;99.90
21417;DHT22;10869;52.238;10.716;2022-11-13T15:59:49;6.80;99.90
21417;DHT22;10869;52.238;10.716;2022-11-13T16:02:15;6.90;99.90
21417;DHT22;10869;52.238;10.716;2022-11-13T16:04:42;6.90;99.90
21417;DHT22;10869;52.238;10.716;2022-11-13T16:07:22;6.90;99.90
21417;DHT22;10869;52.238;10.716;2022-11-13T16:09:49;6.80;99.90
21417;DHT22;10869;52.238;10.716;2022-11-13T16:12:14;6.90;99.90
21417;DHT22;10869;52.238;10.716;2022-11-13T16:14:40;7.00;99.90
21417;DHT22;10869;52.238;10.716;2022-11-13T16:17:18;7.00;99.90
21417;DHT22;10869;52.238;10.716;2022-11-13T16:23:14;6.90;99.90
21417;DHT22;10869;52.238;10.716;2022-11-13T16:25:57;6.90;99.90
21417;DHT22;10869;52.238;10.716;2022-11-13T16:28:23;6.90;99.90
21417;DHT22;10869;52.238;10.716;2022-11-13T16:30:49;6.90;99.90
21417;DHT22;10869;52.238;10.716;2022-11-13T16:33:15;6.90;99.90
21417;DHT22;10869;52.238;10.716;2022-11-13T16:35:41;6.90;99.90
21417;DHT22;10869;52.238;10.716;2022-11-13T16:38:11;6.90;99.90
21417;DHT22;10869;52.238;10.716;2022-11-13T16:40:37;6.90;99.90
21417;DHT22;10869;52.238;10.716;2022-11-13T16:43:06;6.90;99.90
21417;DHT22;10869;52.238;10.716;2022-11-13T16:48:54;6.90;99.90
21417;DHT22;10869;52.238;10.716;2022-11-13T16:54:49;6.80;99.90
21417;DHT22;10869;52.238;10.716;2022-11-13T16:57:16;6.80;99.90
21417;DHT22;10869;52.238;10.716;2022-11-13T17:03:16;6.90;99.90
21417;DHT22;10869;52.238;10.716;2022-11-13T17:05:43;6.80;99.90
21417;DHT22;10869;52.238;10.716;2022-11-13T17:08:12;6.80;99.90
21417;DHT22;10869;52.238;10.716;2022-11-13T17:14:01;6.80;99.90
21417;DHT22;10869;52.238;10.716;2022-11-13T17:16:29;6.80;99.90
21417;DHT22;10869;52.238;10.716;2022-11-13T17:22:19;6.80;99.90
21417;DHT22;10869;52.238;10.716;2022-11-13T17:24:47;6.80;99.90
21417;DHT22;10869;52.238;10.716;2022-11-13T17:27:17;6.80;99.90
21417;DHT22;10869;52.238;10.716;2022-11-13T17:35:55;6.60;99.90
21417;DHT22;10869;52.238;10.716;2022-11-13T17:38:22;6.60;99.90
21417;DHT22;10869;52.238;10.716;2022-11-13T17:40:53;6.50;99.90
21417;DHT22;10869;52.238;10.716;2022-11-13T17:43:27;6.50;99.90
21417;DHT22;10869;52.238;10.716;2022-11-13T17:45:53;6.40;99.90
21417;DHT22;10869;52.238;10.716;2022-11-13T17:51:42;6.20;99.90
21417;DHT22;10869;52.238;10.716;2022-11-13T17:54:08;6.10;99.90
21417;DHT22;10869;52.238;10.716;2022-11-13T17:56:33;6.00;99.90
21417;DHT22;10869;52.238;10.716;2022-11-13T17:59:02;5.90;99.90
21417;DHT22;10869;52.238;10.716;2022-11-13T18:01:28;5.80;99.90
21417;DHT22;10869;52.238;10.716;2022-11-13T18:03:56;5.70;99.90
21417;DHT22;10869;52.238;10.716;2022-11-13T18:09:44;5.60;99.90
21417;DHT22;10869;52.238;10.716;2022-11-13T18:15:36;5.50;99.90
21417;DHT22;10869;52.238;10.716;2022-11-13T18:18:03;5.40;99.90
21417;DHT22;10869;52.238;10.716;2022-11-13T18:20:30;5.40;99.90
21417;DHT22;10869;52.238;10.716;2022-11-13T18:22:55;5.30;99.90
21417;DHT22;10869;52.238;10.716;2022-11-13T18:25:21;5.30;99.90
21417;DHT22;10869;52.238;10.716;2022-11-13T18:27:56;5.30;99.90
21417;DHT22;10869;52.238;10.716;2022-11-13T18:30:22;5.30;99.90
21417;DHT22;10869;52.238;10.716;2022-11-13T18:32:47;5.20;99.90
21417;DHT22;10869;52.238;10.716;2022-11-13T18:35:14;5.20;99.90
21417;DHT22;10869;52.238;10.716;2022-11-13T18:37:39;5.10;99.90
21417;DHT22;10869;52.238;10.716;2022-11-13T18:40:06;5.10;99.90
21417;DHT22;10869;52.238;10.716;2022-11-13T18:43:04;5.00;99.90
21417;DHT22;10869;52.238;10.716;2022-11-13T18:51:55;4.80;99.90
21417;DHT22;10869;52.238;10.716;2022-11-13T18:54:22;4.70;99.90
21417;DHT22;10869;52.238;10.716;2022-11-13T19:00:11;4.50;99.90
21417;DHT22;10869;52.238;10.716;2022-11-13T19:02:36;4.50;99.90
21417;DHT22;10869;52.238;10.716;2022-11-13T19:05:02;4.40;99.90
21417;DHT22;10869;52.238;10.716;2022-11-13T19:07:28;4.40;99.90
21417;DHT22;10869;52.238;10.716;2022-11-13T19:09:54;4.30;99.90
21417;DHT22;10869;52.238;10.716;2022-11-13T19:12:20;4.30;99.90
21417;DHT22;10869;52.238;10.716;2022-11-13T19:14:46;4.20;99.90
21417;DHT22;10869;52.238;10.716;2022-11-13T19:17:11;4.20;99.90
21417;DHT22;10869;52.238;10.716;2022-11-13T19:19:37;4.10;99.90
21417;DHT22;10869;52.238;10.716;2022-11-13T19:22:05;4.10;99.90
21417;DHT22;10869;52.238;10.716;2022-11-13T19:27:53;4.10;99.90
21417;DHT22;10869;52.238;10.716;2022-11-13T19:30:19;4.00;99.90
21417;DHT22;10869;52.238;10.716;2022-11-13T19:32:45;4.00;99.90
21417;DHT22;10869;52.238;10.716;2022-11-13T19:35:11;4.10;99.90
21417;DHT22;10869;52.238;10.716;2022-11-13T19:37:37;4.20;99.90
21417;DHT22;10869;52.238;10.716;2022-11-13T19:40:03;4.30;99.90
21417;DHT22;10869;52.238;10.716;2022-11-13T19:42:29;4.30;99.90
21417;DHT22;10869;52.238;10.716;2022-11-13T19:44:55;4.30;99.90
21417;DHT22;10869;52.238;10.716;2022-11-13T19:47:21;4.30;99.90
21417;DHT22;10869;52.238;10.716;2022-11-13T19:49:47;4.30;99.90
21417;DHT22;10869;52.238;10.716;2022-11-13T19:52:13;4.30;99.90
21417;DHT22;10869;52.238;10.716;2022-11-13T19:54:39;4.30;99.90
21417;DHT22;10869;52.238;10.716;2022-11-13T20:00:28;4.40;99.90
21417;DHT22;10869;52.238;10.716;2022-11-13T20:02:55;4.50;99.90
21417;DHT22;10869;52.238;10.716;2022-11-13T20:08:43;4.80;99.90
21417;DHT22;10869;52.238;10.716;2022-11-13T20:11:11;4.80;99.90
21417;DHT22;10869;52.238;10.716;2022-11-13T20:13:40;5.00;99.90
21417;DHT22;10869;52.238;10.716;2022-11-13T20:16:09;5.00;99.90
21417;DHT22;10869;52.238;10.716;2022-11-13T20:18:35;5.00;99.90
21417;DHT22;10869;52.238;10.716;2022-11-13T20:24:24;5.10;99.90
21417;DHT22;10869;52.238;10.716;2022-11-13T20:26:49;5.10;99.90
21417;DHT22;10869;52.238;10.716;2022-11-13T20:29:15;5.20;99.90
21417;DHT22;10869;52.238;10.716;2022-11-13T20:31:41;5.30;99.90
21417;DHT22;10869;52.238;10.716;2022-11-13T20:34:13;5.30;99.90
21417;DHT22;10869;52.238;10.716;2022-11-13T20:36:39;5.30;99.90
21417;DHT22;10869;52.238;10.716;2022-11-13T20:39:05;5.30;99.90
21417;DHT22;10869;52.238;10.716;2022-11-13T20:41:31;5.30;99.90
21417;DHT22;10869;52.238;10.716;2022-11-13T20:43:57;5.30;99.90
21417;DHT22;10869;52.238;10.716;2022-11-13T20:46:26;5.40;99.90
21417;DHT22;10869;52.238;10.716;2022-11-13T20:48:52;5.40;99.90
21417;DHT22;10869;52.238;10.716;2022-11-13T20:54:40;5.50;99.90
21417;DHT22;10869;52.238;10.716;2022-11-13T21:00:31;5.80;99.90
21417;DHT22;10869;52.238;10.716;2022-11-13T21:02:57;5.90;99.90
21417;DHT22;10869;52.238;10.716;2022-11-13T21:05:23;5.90;99.90
21417;DHT22;10869;52.238;10.716;2022-11-13T21:07:48;5.90;99.90
21417;DHT22;10869;52.238;10.716;2022-11-13T21:10:15;6.00;99.90
21417;DHT22;10869;52.238;10.716;2022-11-13T21:16:07;6.10;99.90
21417;DHT22;10869;52.238;10.716;2022-11-13T21:18:33;6.10;99.90
21417;DHT22;10869;52.238;10.716;2022-11-13T21:21:06;6.00;99.90
21417;DHT22;10869;52.238;10.716;2022-11-13T21:23:32;6.00;99.90
21417;DHT22;10869;52.238;10.716;2022-11-13T21:25:59;6.00;99.90
21417;DHT22;10869;52.238;10.716;2022-11-13T21:28:24;6.10;99.90
21417;DHT22;10869;52.238;10.716;2022-11-13T21:30:50;6.10;99.90
21417;DHT22;10869;52.238;10.716;2022-11-13T21:33:16;6.10;99.90
21417;DHT22;10869;52.238;10.716;2022-11-13T21:35:42;6.20;99.90
21417;DHT22;10869;52.238;10.716;2022-11-13T21:38:07;6.20;99.90
21417;DHT22;10869;52.238;10.716;2022-11-13T21:40:33;6.20;99.90
21417;DHT22;10869;52.238;10.716;2022-11-13T21:42:59;6.20;99.90
21417;DHT22;10869;52.238;10.716;2022-11-13T21:45:25;6.30;99.90
21417;DHT22;10869;52.238;10.716;2022-11-13T21:47:51;6.20;99.90
21417;DHT22;10869;52.238;10.716;2022-11-13T21:50:17;6.20;99.90
21417;DHT22;10869;52.238;10.716;2022-11-13T21:52:43;6.20;99.90
21417;DHT22;10869;52.238;10.716;2022-11-13T21:55:09;6.20;99.90
21417;DHT22;10869;52.238;10.716;2022-11-13T21:57:35;6.10;99.90
21417;DHT22;10869;52.238;10.716;2022-11-13T22:00:01;6.10;99.90
21417;DHT22;10869;52.238;10.716;2022-11-13T22:02:27;6.00;99.90
21417;DHT22;10869;52.238;10.716;2022-11-13T22:04:53;5.90;99.90
21417;DHT22;10869;52.238;10.716;2022-11-13T22:07:19;5.90;99.90
21417;DHT22;10869;52.238;10.716;2022-11-13T22:09:44;5.80;99.90
21417;DHT22;10869;52.238;10.716;2022-11-13T22:12:10;5.80;99.90
21417;DHT22;10869;52.238;10.716;2022-11-13T22:14:36;5.70;99.90
21417;DHT22;10869;52.238;10.716;2022-11-13T22:17:02;5.70;99.90
21417;DHT22;10869;52.238;10.716;2022-11-13T22:19:27;5.60;99.90
21417;DHT22;10869;52.238;10.716;2022-11-13T22:21:53;5.50;99.90
21417;DHT22;10869;52.238;10.716;2022-11-13T22:24:19;5.50;99.90
21417;DHT22;10869;52.238;10.716;2022-11-13T22:26:45;5.50;99.90
21417;DHT22;10869;52.238;10.716;2022-11-13T22:29:12;5.50;99.90
21417;DHT22;10869;52.238;10.716;2022-11-13T22:31:38;5.40;99.90
21417;DHT22;10869;52.238;10.716;2022-11-13T22:34:04;5.40;99.90
21417;DHT22;10869;52.238;10.716;2022-11-13T22:36:32;5.40;99.90
21417;DHT22;10869;52.238;10.716;2022-11-13T22:38:59;5.40;99.90
21417;DHT22;10869;52.238;10.716;2022-11-13T22:41:28;5.30;99.90
21417;DHT22;10869;52.238;10.716;2022-11-13T22:43:59;5.30;99.90
21417;DHT22;10869;52.238;10.716;2022-11-13T22:46:27;5.30;99.90
21417;DHT22;10869;52.238;10.716;2022-11-13T22:48:54;5.30;99.90
21417;DHT22;10869;52.238;10.716;2022-11-13T22:51:26;5.30;99.90
21417;DHT22;10869;52.238;10.716;2022-11-13T22:53:54;5.30;99.90
21417;DHT22;10869;52.238;10.716;2022-11-13T22:56:22;5.30;99.90
21417;DHT22;10869;52.238;10.716;2022-11-13T22:58:48;5.40;99.90
21417;DHT22;10869;52.238;10.716;2022-11-13T23:01:19;5.40;99.90
21417;DHT22;10869;52.238;10.716;2022-11-13T23:03:47;5.50;99.90
21417;DHT22;10869;52.238;10.716;2022-11-13T23:06:17;5.50;99.90
21417;DHT22;10869;52.238;10.716;2022-11-13T23:08:43;5.60;99.90
21417;DHT22;10869;52.238;10.716;2022-11-13T23:11:15;5.60;99.90
21417;DHT22;10869;52.238;10.716;2022-11-13T23:13:43;5.70;99.90
21417;DHT22;10869;52.238;10.716;2022-11-13T23:16:09;5.70;99.90
21417;DHT22;10869;52.238;10.716;2022-11-13T23:18:39;5.80;99.90
21417;DHT22;10869;52.238;10.716;2022-11-13T23:21:05;5.80;99.90
21417;DHT22;10869;52.238;10.716;2022-11-13T23:23:31;5.80;99.90
21417;DHT22;10869;52.238;10.716;2022-11-13T23:25:57;5.80;99.90
21417;DHT22;10869;52.238;10.716;2022-11-13T23:28:25;5.90;99.90
21417;DHT22;10869;52.238;10.716;2022-11-13T23:30:51;5.80;99.90
21417;DHT22;10869;52.238;10.716;2022-11-13T23:33:17;5.80;99.90
21417;DHT22;10869;52.238;10.716;2022-11-13T23:35:43;5.80;99.90
21417;DHT22;10869;52.238;10.716;2022-11-13T23:38:09;5.70;99.90
21417;DHT22;10869;52.238;10.716;2022-11-13T23:40:35;5.70;99.90
21417;DHT22;10869;52.238;10.716;2022-11-13T23:43:00;5.70;99.90
21417;DHT22;10869;52.238;10.716;2022-11-13T23:45:26;5.70;99.90
21417;DHT22;10869;52.238;10.716;2022-11-13T23:47:52;5.70;99.90
21417;DHT22;10869;52.238;10.716;2022-11-13T23:50:18;5.70;99.90
21417;DHT22;10869;52.238;10.716;2022-11-13T23:52:43;5.70;99.90
21417;DHT22;10869;52.238;10.716;2022-11-13T23:55:09;5.70;99.90
21417;DHT22;10869;52.238;10.716;2022-11-13T23:57:35;5.70;99.90
